Sault Sainte Marie, MI

5:34 AM EST on November 26, 2014 (GMT -0500)
Sault Ste Marie Municipal / Sanderson Field | Change Station
CLOSE
Current Station
Airport
Location: Sault Ste Marie,
Elevation: 715 ft
Nearby Weather Stations

Elev 715 ft 46.48 °N, 84.36 °W | Updated 39 minutes ago

Mostly Cloudy
Mostly Cloudy
17 °F
Feels Like 10 °F
N
5
Wind Variable Wind from SSW

Today
High -- | Low -- °F
--% Chance of Precip.
Yesterday
High -- | Low -- °F
Precip. -- in
7:54 AM 4:54 PM
Waxing Crescent, 18% visible
Pressure 30.18 in
Visibility 10.0 miles
Clouds Mostly Cloudy 3300 ft
Windchill 10 °F
Dew Point 13 °F
Humidity 84%
Rainfall 0.00 in
Snow Depth Not available.
UV 0 out of 12
Pollen .10 out of 12
Air Quality Not available.
Flu Activity Not available.
METAR KANJ 260955Z AUTO 20004KT 10SM BKN033 M08/M11 A3015 RMK AO2 PRESFR SLP220 T10831106

More Conditions Fewer Conditions

Pressure 30.18 in
Visibility 10.0 miles
Clouds Mostly Cloudy 3300 ft
Windchill 10 °F
Dew Point 13 °F
Humidity 84%
Rainfall 0.00 in
Snow Depth Not available.
UV 0 out of 12
Pollen .10 out of 12
Air Quality Not available.
Flu Activity Not available.
METAR KANJ 260955Z AUTO 20004KT 10SM BKN033 M08/M11 A3015 RMK AO2 PRESFR SLP220 T10831106

More Conditions Fewer Conditions

Nowcast | as of 5:00 am EST on November 26, 2014

At 6 am...partly sunny. Temperature 19. Light winds. At 8 am...partly sunny. Temperature 18. Light winds. At 10 am...mostly cloudy. Temperature 22. Light winds. At 12 PM...mostly cloudy. Temperature 27. Southeast winds 5 mph.

×

10-Day Weather Forecast

Almanac

Astronomy

Nov. 26, 2014 Rise Set
Actual Time
Civil Twilight
Nautical Twilight
Astronomical Twilight
Moon
Length of Visible Light
Length of Day
Tomorrow will be .
, % of the Moon is Illuminated

Today's Extremes

State Highs State Lows

Community

WunderPhotos

Upload Photos

1,773,708 photos uploaded!

WunderBlogs® & News

Nearby

Air Quality

  Air Quality AQ Index Pollutant
Not available.

Snow Depth

Station Depth Elevation

Earthquake Activity

City Distance Mag. Time & Date
Minimum magnitude displayed is 2.5.

Coastal Water Temperatures

Place Temperature

Nearby Weather Stations